sensor_id;sensor_type;location;lat;lon;timestamp;P1;durP1;ratioP1;P2;durP2;ratioP2
61640;SDS011;62201;49.966;8.342;2023-06-19T00:01:45;8.70;;;5.07;;
61640;SDS011;62201;49.966;8.342;2023-06-19T00:04:11;5.28;;;4.78;;
61640;SDS011;62201;49.966;8.342;2023-06-19T00:06:36;7.63;;;5.18;;
61640;SDS011;62201;49.966;8.342;2023-06-19T00:09:02;13.43;;;5.22;;
61640;SDS011;62201;49.966;8.342;2023-06-19T00:11:28;16.23;;;5.95;;
61640;SDS011;62201;49.966;8.342;2023-06-19T00:13:54;11.43;;;5.10;;
61640;SDS011;62201;49.966;8.342;2023-06-19T00:16:19;5.40;;;4.80;;
61640;SDS011;62201;49.966;8.342;2023-06-19T00:18:45;11.00;;;4.82;;
61640;SDS011;62201;49.966;8.342;2023-06-19T00:21:10;6.47;;;4.72;;
61640;SDS011;62201;49.966;8.342;2023-06-19T00:23:36;7.10;;;4.90;;
61640;SDS011;62201;49.966;8.342;2023-06-19T00:26:02;7.85;;;5.22;;
61640;SDS011;62201;49.966;8.342;2023-06-19T00:28:28;12.68;;;5.25;;
61640;SDS011;62201;49.966;8.342;2023-06-19T00:30:54;9.20;;;5.15;;
61640;SDS011;62201;49.966;8.342;2023-06-19T00:33:19;8.75;;;5.30;;
61640;SDS011;62201;49.966;8.342;2023-06-19T00:35:44;9.70;;;5.63;;
61640;SDS011;62201;49.966;8.342;2023-06-19T00:38:10;8.82;;;5.28;;
61640;SDS011;62201;49.966;8.342;2023-06-19T00:40:35;13.00;;;6.55;;
61640;SDS011;62201;49.966;8.342;2023-06-19T00:43:01;6.95;;;5.28;;
61640;SDS011;62201;49.966;8.342;2023-06-19T00:45:27;16.75;;;5.88;;
61640;SDS011;62201;49.966;8.342;2023-06-19T00:47:53;13.23;;;5.70;;
61640;SDS011;62201;49.966;8.342;2023-06-19T00:50:19;15.00;;;5.85;;
61640;SDS011;62201;49.966;8.342;2023-06-19T00:52:46;13.77;;;5.70;;
61640;SDS011;62201;49.966;8.342;2023-06-19T00:55:11;9.15;;;6.07;;
61640;SDS011;62201;49.966;8.342;2023-06-19T00:57:38;11.95;;;6.10;;
61640;SDS011;62201;49.966;8.342;2023-06-19T01:00:04;9.45;;;5.80;;
61640;SDS011;62201;49.966;8.342;2023-06-19T01:02:31;10.98;;;6.20;;
61640;SDS011;62201;49.966;8.342;2023-06-19T01:04:57;10.68;;;6.07;;
61640;SDS011;62201;49.966;8.342;2023-06-19T01:07:25;13.75;;;5.90;;
61640;SDS011;62201;49.966;8.342;2023-06-19T01:09:57;12.25;;;6.07;;
61640;SDS011;62201;49.966;8.342;2023-06-19T01:12:37;9.35;;;6.60;;
61640;SDS011;62201;49.966;8.342;2023-06-19T01:15:05;9.93;;;5.90;;
61640;SDS011;62201;49.966;8.342;2023-06-19T01:17:34;14.73;;;6.20;;
61640;SDS011;62201;49.966;8.342;2023-06-19T01:20:01;12.20;;;5.70;;
61640;SDS011;62201;49.966;8.342;2023-06-19T01:22:32;13.20;;;5.63;;
61640;SDS011;62201;49.966;8.342;2023-06-19T01:24:57;15.52;;;5.93;;
61640;SDS011;62201;49.966;8.342;2023-06-19T01:27:23;9.70;;;6.30;;
61640;SDS011;62201;49.966;8.342;2023-06-19T01:29:54;16.23;;;6.23;;
61640;SDS011;62201;49.966;8.342;2023-06-19T01:32:36;10.48;;;5.90;;
61640;SDS011;62201;49.966;8.342;2023-06-19T01:35:07;12.93;;;6.50;;
61640;SDS011;62201;49.966;8.342;2023-06-19T01:37:36;9.80;;;6.00;;
61640;SDS011;62201;49.966;8.342;2023-06-19T01:40:03;14.18;;;6.00;;
61640;SDS011;62201;49.966;8.342;2023-06-19T01:42:34;14.13;;;6.07;;
61640;SDS011;62201;49.966;8.342;2023-06-19T01:45:02;11.75;;;6.10;;
61640;SDS011;62201;49.966;8.342;2023-06-19T01:47:28;12.95;;;6.55;;
61640;SDS011;62201;49.966;8.342;2023-06-19T01:49:54;10.85;;;6.20;;
61640;SDS011;62201;49.966;8.342;2023-06-19T01:52:19;15.05;;;5.82;;
61640;SDS011;62201;49.966;8.342;2023-06-19T01:54:45;7.78;;;5.72;;
61640;SDS011;62201;49.966;8.342;2023-06-19T01:57:10;5.90;;;4.80;;
61640;SDS011;62201;49.966;8.342;2023-06-19T01:59:36;8.68;;;5.15;;
61640;SDS011;62201;49.966;8.342;2023-06-19T02:02:01;15.02;;;5.38;;
61640;SDS011;62201;49.966;8.342;2023-06-19T02:04:29;10.50;;;5.10;;
61640;SDS011;62201;49.966;8.342;2023-06-19T02:06:54;6.50;;;4.95;;
61640;SDS011;62201;49.966;8.342;2023-06-19T02:09:20;15.52;;;5.70;;
61640;SDS011;62201;49.966;8.342;2023-06-19T02:11:45;5.82;;;4.60;;
61640;SDS011;62201;49.966;8.342;2023-06-19T02:14:10;8.70;;;4.88;;
61640;SDS011;62201;49.966;8.342;2023-06-19T02:16:36;5.35;;;4.85;;
61640;SDS011;62201;49.966;8.342;2023-06-19T02:19:02;9.38;;;5.18;;
61640;SDS011;62201;49.966;8.342;2023-06-19T02:21:27;5.47;;;4.57;;
61640;SDS011;62201;49.966;8.342;2023-06-19T02:23:53;9.00;;;4.88;;
61640;SDS011;62201;49.966;8.342;2023-06-19T02:26:19;6.22;;;4.70;;
61640;SDS011;62201;49.966;8.342;2023-06-19T02:28:44;11.75;;;5.45;;
61640;SDS011;62201;49.966;8.342;2023-06-19T02:31:10;7.75;;;4.75;;
61640;SDS011;62201;49.966;8.342;2023-06-19T02:33:35;8.90;;;4.80;;
61640;SDS011;62201;49.966;8.342;2023-06-19T02:36:00;6.22;;;4.25;;
61640;SDS011;62201;49.966;8.342;2023-06-19T02:38:26;6.15;;;4.70;;
61640;SDS011;62201;49.966;8.342;2023-06-19T02:40:52;7.35;;;4.82;;
61640;SDS011;62201;49.966;8.342;2023-06-19T02:43:17;5.88;;;5.03;;
61640;SDS011;62201;49.966;8.342;2023-06-19T02:45:42;5.53;;;4.43;;
61640;SDS011;62201;49.966;8.342;2023-06-19T02:48:08;8.77;;;4.80;;
61640;SDS011;62201;49.966;8.342;2023-06-19T02:50:35;7.65;;;4.70;;
61640;SDS011;62201;49.966;8.342;2023-06-19T02:53:00;5.35;;;4.60;;
61640;SDS011;62201;49.966;8.342;2023-06-19T02:55:25;7.25;;;4.70;;
61640;SDS011;62201;49.966;8.342;2023-06-19T02:57:51;7.72;;;4.28;;
61640;SDS011;62201;49.966;8.342;2023-06-19T03:00:17;7.80;;;4.90;;
61640;SDS011;62201;49.966;8.342;2023-06-19T03:02:43;6.45;;;4.15;;
61640;SDS011;62201;49.966;8.342;2023-06-19T03:05:13;8.45;;;4.80;;
61640;SDS011;62201;49.966;8.342;2023-06-19T03:07:40;8.65;;;4.40;;
61640;SDS011;62201;49.966;8.342;2023-06-19T03:10:06;5.60;;;4.30;;
61640;SDS011;62201;49.966;8.342;2023-06-19T03:12:32;5.95;;;4.68;;
61640;SDS011;62201;49.966;8.342;2023-06-19T03:14:57;6.07;;;4.50;;
61640;SDS011;62201;49.966;8.342;2023-06-19T03:17:23;5.38;;;4.50;;
61640;SDS011;62201;49.966;8.342;2023-06-19T03:19:48;8.35;;;4.93;;
61640;SDS011;62201;49.966;8.342;2023-06-19T03:22:13;10.75;;;5.00;;
61640;SDS011;62201;49.966;8.342;2023-06-19T03:24:39;6.10;;;4.53;;
61640;SDS011;62201;49.966;8.342;2023-06-19T03:27:04;11.05;;;5.25;;
61640;SDS011;62201;49.966;8.342;2023-06-19T03:29:30;7.65;;;4.55;;
61640;SDS011;62201;49.966;8.342;2023-06-19T03:31:55;6.35;;;4.60;;
61640;SDS011;62201;49.966;8.342;2023-06-19T03:34:20;9.02;;;4.63;;
61640;SDS011;62201;49.966;8.342;2023-06-19T03:36:46;8.93;;;5.15;;
61640;SDS011;62201;49.966;8.342;2023-06-19T03:39:11;6.38;;;5.15;;
61640;SDS011;62201;49.966;8.342;2023-06-19T03:41:37;7.07;;;4.95;;
61640;SDS011;62201;49.966;8.342;2023-06-19T03:44:02;7.85;;;4.72;;
61640;SDS011;62201;49.966;8.342;2023-06-19T03:46:28;5.43;;;4.93;;
61640;SDS011;62201;49.966;8.342;2023-06-19T03:48:53;7.45;;;5.07;;
61640;SDS011;62201;49.966;8.342;2023-06-19T03:51:18;8.45;;;4.88;;
61640;SDS011;62201;49.966;8.342;2023-06-19T03:53:44;5.53;;;4.20;;
61640;SDS011;62201;49.966;8.342;2023-06-19T03:56:09;8.90;;;4.65;;
61640;SDS011;62201;49.966;8.342;2023-06-19T03:58:35;8.43;;;4.50;;
61640;SDS011;62201;49.966;8.342;2023-06-19T04:01:00;6.00;;;4.65;;
61640;SDS011;62201;49.966;8.342;2023-06-19T04:03:26;8.02;;;4.57;;
61640;SDS011;62201;49.966;8.342;2023-06-19T04:05:51;5.60;;;4.45;;
61640;SDS011;62201;49.966;8.342;2023-06-19T04:08:16;5.43;;;4.50;;
61640;SDS011;62201;49.966;8.342;2023-06-19T04:10:42;6.15;;;4.82;;
61640;SDS011;62201;49.966;8.342;2023-06-19T04:13:07;5.45;;;4.38;;
61640;SDS011;62201;49.966;8.342;2023-06-19T04:15:33;5.40;;;3.83;;
61640;SDS011;62201;49.966;8.342;2023-06-19T04:18:00;6.20;;;3.58;;
61640;SDS011;62201;49.966;8.342;2023-06-19T04:20:26;4.78;;;4.05;;
61640;SDS011;62201;49.966;8.342;2023-06-19T04:22:51;4.72;;;3.70;;
61640;SDS011;62201;49.966;8.342;2023-06-19T04:25:17;7.13;;;3.72;;
61640;SDS011;62201;49.966;8.342;2023-06-19T04:27:43;4.57;;;4.10;;
61640;SDS011;62201;49.966;8.342;2023-06-19T04:30:09;3.83;;;3.30;;
61640;SDS011;62201;49.966;8.342;2023-06-19T04:32:38;4.82;;;3.65;;
61640;SDS011;62201;49.966;8.342;2023-06-19T04:35:06;4.65;;;4.10;;
61640;SDS011;62201;49.966;8.342;2023-06-19T04:37:32;3.80;;;3.40;;
61640;SDS011;62201;49.966;8.342;2023-06-19T04:39:57;7.22;;;3.45;;
61640;SDS011;62201;49.966;8.342;2023-06-19T04:42:23;5.80;;;3.58;;
61640;SDS011;62201;49.966;8.342;2023-06-19T04:44:48;3.90;;;3.47;;
61640;SDS011;62201;49.966;8.342;2023-06-19T04:47:16;5.43;;;3.08;;
61640;SDS011;62201;49.966;8.342;2023-06-19T04:49:43;6.03;;;3.20;;
61640;SDS011;62201;49.966;8.342;2023-06-19T04:52:08;6.32;;;3.22;;
61640;SDS011;62201;49.966;8.342;2023-06-19T04:54:33;5.68;;;2.88;;
61640;SDS011;62201;49.966;8.342;2023-06-19T04:56:59;5.90;;;3.28;;
61640;SDS011;62201;49.966;8.342;2023-06-19T04:59:24;5.50;;;3.22;;
61640;SDS011;62201;49.966;8.342;2023-06-19T05:01:50;4.97;;;3.20;;
61640;SDS011;62201;49.966;8.342;2023-06-19T05:04:21;5.45;;;3.20;;
61640;SDS011;62201;49.966;8.342;2023-06-19T05:06:47;6.18;;;3.85;;
61640;SDS011;62201;49.966;8.342;2023-06-19T05:09:13;3.40;;;2.90;;
61640;SDS011;62201;49.966;8.342;2023-06-19T05:11:39;5.18;;;3.33;;
61640;SDS011;62201;49.966;8.342;2023-06-19T05:14:04;4.03;;;3.03;;
61640;SDS011;62201;49.966;8.342;2023-06-19T05:16:30;2.95;;;2.72;;
61640;SDS011;62201;49.966;8.342;2023-06-19T05:18:55;5.15;;;3.00;;
61640;SDS011;62201;49.966;8.342;2023-06-19T05:21:21;5.70;;;2.67;;
61640;SDS011;62201;49.966;8.342;2023-06-19T05:23:46;6.75;;;3.00;;
61640;SDS011;62201;49.966;8.342;2023-06-19T05:26:16;3.47;;;2.80;;
61640;SDS011;62201;49.966;8.342;2023-06-19T05:28:41;4.00;;;2.70;;
61640;SDS011;62201;49.966;8.342;2023-06-19T05:31:07;5.13;;;2.70;;
61640;SDS011;62201;49.966;8.342;2023-06-19T05:33:32;4.47;;;2.72;;
61640;SDS011;62201;49.966;8.342;2023-06-19T05:35:58;4.70;;;2.80;;
61640;SDS011;62201;49.966;8.342;2023-06-19T05:38:23;4.15;;;2.67;;
61640;SDS011;62201;49.966;8.342;2023-06-19T05:40:50;5.40;;;3.10;;
61640;SDS011;62201;49.966;8.342;2023-06-19T05:43:17;4.82;;;2.75;;
61640;SDS011;62201;49.966;8.342;2023-06-19T05:45:43;4.03;;;2.60;;
61640;SDS011;62201;49.966;8.342;2023-06-19T05:48:09;4.25;;;2.70;;
61640;SDS011;62201;49.966;8.342;2023-06-19T05:50:34;4.97;;;3.00;;
61640;SDS011;62201;49.966;8.342;2023-06-19T05:53:00;4.28;;;2.70;;
61640;SDS011;62201;49.966;8.342;2023-06-19T05:55:25;3.53;;;2.53;;
61640;SDS011;62201;49.966;8.342;2023-06-19T05:57:52;6.20;;;2.83;;
61640;SDS011;62201;49.966;8.342;2023-06-19T06:00:18;4.47;;;3.05;;
61640;SDS011;62201;49.966;8.342;2023-06-19T06:02:44;4.05;;;2.70;;
61640;SDS011;62201;49.966;8.342;2023-06-19T06:05:12;2.67;;;2.38;;
61640;SDS011;62201;49.966;8.342;2023-06-19T06:07:37;3.10;;;2.55;;
61640;SDS011;62201;49.966;8.342;2023-06-19T06:10:03;10.00;;;2.80;;
61640;SDS011;62201;49.966;8.342;2023-06-19T06:12:28;6.03;;;2.78;;
61640;SDS011;62201;49.966;8.342;2023-06-19T06:14:54;3.97;;;2.70;;
61640;SDS011;62201;49.966;8.342;2023-06-19T06:17:19;9.98;;;2.80;;
61640;SDS011;62201;49.966;8.342;2023-06-19T06:19:44;5.55;;;2.90;;
61640;SDS011;62201;49.966;8.342;2023-06-19T06:22:10;4.43;;;2.55;;
61640;SDS011;62201;49.966;8.342;2023-06-19T06:24:35;3.45;;;2.72;;
61640;SDS011;62201;49.966;8.342;2023-06-19T06:27:00;10.75;;;2.85;;
61640;SDS011;62201;49.966;8.342;2023-06-19T06:29:26;4.93;;;3.00;;
61640;SDS011;62201;49.966;8.342;2023-06-19T06:31:51;4.95;;;2.85;;
61640;SDS011;62201;49.966;8.342;2023-06-19T06:34:17;5.57;;;2.80;;
61640;SDS011;62201;49.966;8.342;2023-06-19T06:36:44;7.45;;;2.85;;
61640;SDS011;62201;49.966;8.342;2023-06-19T06:39:09;5.40;;;2.88;;
61640;SDS011;62201;49.966;8.342;2023-06-19T06:41:35;9.60;;;2.80;;
61640;SDS011;62201;49.966;8.342;2023-06-19T06:44:01;5.43;;;2.90;;
61640;SDS011;62201;49.966;8.342;2023-06-19T06:46:27;5.63;;;2.80;;
61640;SDS011;62201;49.966;8.342;2023-06-19T06:48:52;6.80;;;2.78;;
61640;SDS011;62201;49.966;8.342;2023-06-19T06:51:18;3.72;;;2.75;;
61640;SDS011;62201;49.966;8.342;2023-06-19T06:53:43;4.57;;;2.60;;
61640;SDS011;62201;49.966;8.342;2023-06-19T06:56:09;4.60;;;2.83;;
61640;SDS011;62201;49.966;8.342;2023-06-19T06:58:35;9.45;;;2.85;;
61640;SDS011;62201;49.966;8.342;2023-06-19T07:01:01;3.17;;;2.53;;
61640;SDS011;62201;49.966;8.342;2023-06-19T07:03:26;4.85;;;2.35;;
61640;SDS011;62201;49.966;8.342;2023-06-19T07:05:55;6.95;;;2.63;;
61640;SDS011;62201;49.966;8.342;2023-06-19T07:08:20;2.88;;;2.30;;
61640;SDS011;62201;49.966;8.342;2023-06-19T07:10:46;3.70;;;2.50;;
61640;SDS011;62201;49.966;8.342;2023-06-19T07:13:11;4.25;;;2.47;;
61640;SDS011;62201;49.966;8.342;2023-06-19T07:15:36;5.18;;;2.58;;
61640;SDS011;62201;49.966;8.342;2023-06-19T07:18:02;4.82;;;2.50;;
61640;SDS011;62201;49.966;8.342;2023-06-19T07:20:27;3.20;;;2.47;;
61640;SDS011;62201;49.966;8.342;2023-06-19T07:22:53;3.33;;;2.50;;
61640;SDS011;62201;49.966;8.342;2023-06-19T07:25:19;3.33;;;2.30;;
61640;SDS011;62201;49.966;8.342;2023-06-19T07:27:44;3.20;;;2.40;;
61640;SDS011;62201;49.966;8.342;2023-06-19T07:30:10;4.60;;;2.63;;
61640;SDS011;62201;49.966;8.342;2023-06-19T07:32:36;2.83;;;2.53;;
61640;SDS011;62201;49.966;8.342;2023-06-19T07:35:02;5.45;;;2.65;;
61640;SDS011;62201;49.966;8.342;2023-06-19T07:37:28;3.15;;;2.75;;
61640;SDS011;62201;49.966;8.342;2023-06-19T07:39:53;5.28;;;2.80;;
61640;SDS011;62201;49.966;8.342;2023-06-19T07:42:19;7.68;;;2.72;;
61640;SDS011;62201;49.966;8.342;2023-06-19T07:44:45;5.22;;;2.70;;
61640;SDS011;62201;49.966;8.342;2023-06-19T07:47:10;4.22;;;2.40;;
61640;SDS011;62201;49.966;8.342;2023-06-19T07:49:36;7.78;;;2.65;;
61640;SDS011;62201;49.966;8.342;2023-06-19T07:52:02;5.40;;;2.80;;
61640;SDS011;62201;49.966;8.342;2023-06-19T07:54:29;2.80;;;2.53;;
61640;SDS011;62201;49.966;8.342;2023-06-19T07:56:54;4.35;;;2.55;;
61640;SDS011;62201;49.966;8.342;2023-06-19T07:59:20;5.15;;;2.75;;
61640;SDS011;62201;49.966;8.342;2023-06-19T08:01:45;3.83;;;2.50;;
61640;SDS011;62201;49.966;8.342;2023-06-19T08:04:10;8.40;;;2.80;;
61640;SDS011;62201;49.966;8.342;2023-06-19T08:06:36;2.60;;;2.40;;
61640;SDS011;62201;49.966;8.342;2023-06-19T08:09:02;4.40;;;2.90;;
61640;SDS011;62201;49.966;8.342;2023-06-19T08:11:27;11.35;;;3.38;;
61640;SDS011;62201;49.966;8.342;2023-06-19T08:13:53;3.95;;;2.50;;
61640;SDS011;62201;49.966;8.342;2023-06-19T08:16:18;4.35;;;2.53;;
61640;SDS011;62201;49.966;8.342;2023-06-19T08:18:44;4.78;;;2.67;;
61640;SDS011;62201;49.966;8.342;2023-06-19T08:21:10;4.40;;;2.53;;
61640;SDS011;62201;49.966;8.342;2023-06-19T08:23:35;5.40;;;2.65;;
61640;SDS011;62201;49.966;8.342;2023-06-19T08:26:02;3.40;;;2.58;;
61640;SDS011;62201;49.966;8.342;2023-06-19T08:28:28;6.80;;;2.85;;
61640;SDS011;62201;49.966;8.342;2023-06-19T08:30:54;5.22;;;2.90;;
61640;SDS011;62201;49.966;8.342;2023-06-19T08:33:19;2.95;;;2.60;;
61640;SDS011;62201;49.966;8.342;2023-06-19T08:35:45;4.80;;;2.70;;
61640;SDS011;62201;49.966;8.342;2023-06-19T08:38:12;4.00;;;2.80;;
61640;SDS011;62201;49.966;8.342;2023-06-19T08:40:37;3.38;;;2.55;;
61640;SDS011;62201;49.966;8.342;2023-06-19T08:43:02;4.13;;;2.83;;
61640;SDS011;62201;49.966;8.342;2023-06-19T08:45:28;4.05;;;2.80;;
61640;SDS011;62201;49.966;8.342;2023-06-19T08:47:57;3.97;;;2.75;;
61640;SDS011;62201;49.966;8.342;2023-06-19T08:50:24;3.17;;;2.78;;
61640;SDS011;62201;49.966;8.342;2023-06-19T08:52:50;9.32;;;2.80;;
61640;SDS011;62201;49.966;8.342;2023-06-19T08:55:15;4.53;;;3.03;;
61640;SDS011;62201;49.966;8.342;2023-06-19T08:57:41;3.03;;;2.65;;
61640;SDS011;62201;49.966;8.342;2023-06-19T09:00:07;6.97;;;2.72;;
61640;SDS011;62201;49.966;8.342;2023-06-19T09:02:36;5.22;;;2.85;;
61640;SDS011;62201;49.966;8.342;2023-06-19T09:05:09;5.20;;;2.80;;
61640;SDS011;62201;49.966;8.342;2023-06-19T09:07:38;3.85;;;2.60;;
61640;SDS011;62201;49.966;8.342;2023-06-19T09:10:13;5.30;;;2.85;;
61640;SDS011;62201;49.966;8.342;2023-06-19T09:12:43;5.55;;;2.72;;
61640;SDS011;62201;49.966;8.342;2023-06-19T09:15:13;2.85;;;2.47;;
61640;SDS011;62201;49.966;8.342;2023-06-19T09:17:40;3.55;;;2.40;;
61640;SDS011;62201;49.966;8.342;2023-06-19T09:20:06;3.00;;;2.50;;
61640;SDS011;62201;49.966;8.342;2023-06-19T09:22:32;3.47;;;2.65;;
61640;SDS011;62201;49.966;8.342;2023-06-19T09:25:01;5.75;;;2.45;;
61640;SDS011;62201;49.966;8.342;2023-06-19T09:27:31;2.70;;;2.50;;
61640;SDS011;62201;49.966;8.342;2023-06-19T09:29:58;4.53;;;2.47;;
61640;SDS011;62201;49.966;8.342;2023-06-19T09:34:54;5.10;;;2.53;;
61640;SDS011;62201;49.966;8.342;2023-06-19T09:37:24;5.90;;;2.42;;
61640;SDS011;62201;49.966;8.342;2023-06-19T09:39:55;6.82;;;2.55;;
61640;SDS011;62201;49.966;8.342;2023-06-19T09:42:27;3.78;;;2.70;;
61640;SDS011;62201;49.966;8.342;2023-06-19T09:45:00;4.18;;;2.60;;
61640;SDS011;62201;49.966;8.342;2023-06-19T09:47:31;3.72;;;2.45;;
61640;SDS011;62201;49.966;8.342;2023-06-19T09:50:00;3.78;;;2.47;;
61640;SDS011;62201;49.966;8.342;2023-06-19T09:52:26;3.67;;;2.40;;
61640;SDS011;62201;49.966;8.342;2023-06-19T09:54:53;4.40;;;2.40;;
61640;SDS011;62201;49.966;8.342;2023-06-19T09:57:19;4.05;;;2.40;;
61640;SDS011;62201;49.966;8.342;2023-06-19T09:59:51;2.90;;;2.40;;
61640;SDS011;62201;49.966;8.342;2023-06-19T10:02:19;6.53;;;2.55;;
61640;SDS011;62201;49.966;8.342;2023-06-19T10:04:50;4.78;;;2.20;;
61640;SDS011;62201;49.966;8.342;2023-06-19T10:07:18;2.53;;;2.33;;
61640;SDS011;62201;49.966;8.342;2023-06-19T10:09:58;4.28;;;2.50;;
61640;SDS011;62201;49.966;8.342;2023-06-19T10:12:34;6.55;;;2.33;;
61640;SDS011;62201;49.966;8.342;2023-06-19T10:17:37;2.95;;;2.30;;
61640;SDS011;62201;49.966;8.342;2023-06-19T10:20:03;3.33;;;2.30;;
61640;SDS011;62201;49.966;8.342;2023-06-19T10:22:32;5.85;;;2.30;;
61640;SDS011;62201;49.966;8.342;2023-06-19T10:24:57;4.07;;;2.17;;
61640;SDS011;62201;49.966;8.342;2023-06-19T10:27:24;2.78;;;2.38;;
61640;SDS011;62201;49.966;8.342;2023-06-19T10:29:53;7.40;;;2.80;;
61640;SDS011;62201;49.966;8.342;2023-06-19T10:32:20;3.10;;;2.10;;
61640;SDS011;62201;49.966;8.342;2023-06-19T10:34:46;4.45;;;2.35;;
61640;SDS011;62201;49.966;8.342;2023-06-19T10:37:14;2.83;;;2.25;;
61640;SDS011;62201;49.966;8.342;2023-06-19T10:39:42;3.42;;;2.38;;
61640;SDS011;62201;49.966;8.342;2023-06-19T10:42:09;4.80;;;2.38;;
61640;SDS011;62201;49.966;8.342;2023-06-19T10:44:35;8.20;;;2.38;;
61640;SDS011;62201;49.966;8.342;2023-06-19T10:47:02;4.22;;;2.35;;
61640;SDS011;62201;49.966;8.342;2023-06-19T10:49:29;5.28;;;2.38;;
61640;SDS011;62201;49.966;8.342;2023-06-19T10:51:54;5.45;;;2.30;;
61640;SDS011;62201;49.966;8.342;2023-06-19T10:54:24;7.38;;;2.33;;
61640;SDS011;62201;49.966;8.342;2023-06-19T10:56:50;2.85;;;2.17;;
61640;SDS011;62201;49.966;8.342;2023-06-19T10:59:16;4.20;;;2.30;;
61640;SDS011;62201;49.966;8.342;2023-06-19T11:01:44;6.07;;;2.35;;
61640;SDS011;62201;49.966;8.342;2023-06-19T11:04:11;4.10;;;2.45;;
61640;SDS011;62201;49.966;8.342;2023-06-19T11:06:38;7.45;;;2.15;;
61640;SDS011;62201;49.966;8.342;2023-06-19T11:09:08;4.78;;;2.13;;
61640;SDS011;62201;49.966;8.342;2023-06-19T11:14:11;4.30;;;2.25;;
61640;SDS011;62201;49.966;8.342;2023-06-19T11:16:38;4.30;;;2.35;;
61640;SDS011;62201;49.966;8.342;2023-06-19T11:19:07;4.97;;;2.10;;
61640;SDS011;62201;49.966;8.342;2023-06-19T11:21:34;10.65;;;2.30;;
61640;SDS011;62201;49.966;8.342;2023-06-19T11:24:02;6.25;;;2.65;;
61640;SDS011;62201;49.966;8.342;2023-06-19T11:26:28;4.07;;;2.20;;
61640;SDS011;62201;49.966;8.342;2023-06-19T11:28:53;3.58;;;2.00;;
61640;SDS011;62201;49.966;8.342;2023-06-19T11:31:24;2.65;;;1.80;;
61640;SDS011;62201;49.966;8.342;2023-06-19T11:33:58;6.07;;;1.98;;
61640;SDS011;62201;49.966;8.342;2023-06-19T11:36:29;3.40;;;1.90;;
61640;SDS011;62201;49.966;8.342;2023-06-19T11:38:54;9.82;;;2.13;;
61640;SDS011;62201;49.966;8.342;2023-06-19T11:41:29;5.68;;;2.25;;
61640;SDS011;62201;49.966;8.342;2023-06-19T11:43:58;2.00;;;1.80;;
61640;SDS011;62201;49.966;8.342;2023-06-19T11:46:29;7.50;;;2.30;;
61640;SDS011;62201;49.966;8.342;2023-06-19T11:48:56;3.80;;;2.05;;
61640;SDS011;62201;49.966;8.342;2023-06-19T11:51:32;4.05;;;2.40;;
61640;SDS011;62201;49.966;8.342;2023-06-19T11:53:57;3.97;;;2.13;;
61640;SDS011;62201;49.966;8.342;2023-06-19T11:56:22;3.35;;;1.88;;
61640;SDS011;62201;49.966;8.342;2023-06-19T11:58:48;2.97;;;2.25;;
61640;SDS011;62201;49.966;8.342;2023-06-19T12:01:13;3.42;;;2.00;;
61640;SDS011;62201;49.966;8.342;2023-06-19T12:03:38;5.18;;;1.80;;
61640;SDS011;62201;49.966;8.342;2023-06-19T12:06:04;3.20;;;1.95;;
61640;SDS011;62201;49.966;8.342;2023-06-19T12:08:29;4.90;;;2.25;;
61640;SDS011;62201;49.966;8.342;2023-06-19T12:10:55;3.80;;;2.28;;
61640;SDS011;62201;49.966;8.342;2023-06-19T12:13:20;3.75;;;2.00;;
61640;SDS011;62201;49.966;8.342;2023-06-19T12:15:45;2.58;;;2.20;;
61640;SDS011;62201;49.966;8.342;2023-06-19T12:18:11;7.30;;;2.25;;
61640;SDS011;62201;49.966;8.342;2023-06-19T12:20:37;3.97;;;2.10;;
61640;SDS011;62201;49.966;8.342;2023-06-19T12:23:02;2.83;;;2.03;;
61640;SDS011;62201;49.966;8.342;2023-06-19T12:25:28;2.88;;;2.25;;
61640;SDS011;62201;49.966;8.342;2023-06-19T12:27:53;3.70;;;1.98;;
61640;SDS011;62201;49.966;8.342;2023-06-19T12:30:19;2.60;;;2.30;;
61640;SDS011;62201;49.966;8.342;2023-06-19T12:32:44;2.10;;;1.90;;
61640;SDS011;62201;49.966;8.342;2023-06-19T12:35:09;16.92;;;2.13;;
61640;SDS011;62201;49.966;8.342;2023-06-19T12:37:35;5.65;;;2.17;;
61640;SDS011;62201;49.966;8.342;2023-06-19T12:40:00;5.05;;;2.17;;
61640;SDS011;62201;49.966;8.342;2023-06-19T12:42:26;2.58;;;1.95;;
61640;SDS011;62201;49.966;8.342;2023-06-19T12:44:52;3.38;;;2.28;;
61640;SDS011;62201;49.966;8.342;2023-06-19T12:47:17;4.97;;;1.90;;
61640;SDS011;62201;49.966;8.342;2023-06-19T12:49:43;4.22;;;1.95;;
61640;SDS011;62201;49.966;8.342;2023-06-19T12:52:08;3.45;;;2.10;;
61640;SDS011;62201;49.966;8.342;2023-06-19T12:54:34;9.27;;;2.30;;
61640;SDS011;62201;49.966;8.342;2023-06-19T12:57:00;3.15;;;1.80;;
61640;SDS011;62201;49.966;8.342;2023-06-19T12:59:25;4.70;;;2.30;;
61640;SDS011;62201;49.966;8.342;2023-06-19T13:01:51;2.55;;;1.98;;
61640;SDS011;62201;49.966;8.342;2023-06-19T13:04:16;3.35;;;1.95;;
61640;SDS011;62201;49.966;8.342;2023-06-19T13:06:42;5.18;;;1.88;;
61640;SDS011;62201;49.966;8.342;2023-06-19T13:09:07;3.28;;;1.95;;
61640;SDS011;62201;49.966;8.342;2023-06-19T13:11:33;2.50;;;1.83;;
61640;SDS011;62201;49.966;8.342;2023-06-19T13:13:59;2.55;;;2.20;;
61640;SDS011;62201;49.966;8.342;2023-06-19T13:16:28;2.25;;;1.70;;
61640;SDS011;62201;49.966;8.342;2023-06-19T13:18:53;2.88;;;2.00;;
61640;SDS011;62201;49.966;8.342;2023-06-19T13:21:19;2.78;;;2.15;;
61640;SDS011;62201;49.966;8.342;2023-06-19T13:23:44;4.65;;;2.10;;
61640;SDS011;62201;49.966;8.342;2023-06-19T13:26:10;3.13;;;2.17;;
61640;SDS011;62201;49.966;8.342;2023-06-19T13:28:35;4.25;;;2.35;;
61640;SDS011;62201;49.966;8.342;2023-06-19T13:31:01;2.72;;;1.92;;
61640;SDS011;62201;49.966;8.342;2023-06-19T13:33:27;3.63;;;2.10;;
61640;SDS011;62201;49.966;8.342;2023-06-19T13:35:53;2.72;;;2.30;;
61640;SDS011;62201;49.966;8.342;2023-06-19T13:38:18;4.07;;;2.70;;
61640;SDS011;62201;49.966;8.342;2023-06-19T13:40:43;3.05;;;2.05;;
61640;SDS011;62201;49.966;8.342;2023-06-19T13:43:09;3.70;;;1.83;;
61640;SDS011;62201;49.966;8.342;2023-06-19T13:45:35;6.10;;;2.08;;
61640;SDS011;62201;49.966;8.342;2023-06-19T13:48:01;2.70;;;2.20;;
61640;SDS011;62201;49.966;8.342;2023-06-19T13:50:26;6.68;;;1.92;;
61640;SDS011;62201;49.966;8.342;2023-06-19T13:52:52;2.35;;;1.95;;
61640;SDS011;62201;49.966;8.342;2023-06-19T13:55:18;5.05;;;1.80;;
61640;SDS011;62201;49.966;8.342;2023-06-19T13:57:44;3.95;;;2.22;;
61640;SDS011;62201;49.966;8.342;2023-06-19T14:00:10;2.90;;;1.85;;
61640;SDS011;62201;49.966;8.342;2023-06-19T14:02:37;3.35;;;2.30;;
61640;SDS011;62201;49.966;8.342;2023-06-19T14:05:05;3.78;;;1.95;;
61640;SDS011;62201;49.966;8.342;2023-06-19T14:07:32;3.67;;;2.30;;
61640;SDS011;62201;49.966;8.342;2023-06-19T14:09:58;4.50;;;2.53;;
61640;SDS011;62201;49.966;8.342;2023-06-19T14:12:23;3.90;;;2.13;;
61640;SDS011;62201;49.966;8.342;2023-06-19T14:14:49;2.88;;;2.20;;
61640;SDS011;62201;49.966;8.342;2023-06-19T14:17:14;2.67;;;2.22;;
61640;SDS011;62201;49.966;8.342;2023-06-19T14:19:39;3.95;;;2.28;;
61640;SDS011;62201;49.966;8.342;2023-06-19T14:22:05;3.80;;;2.28;;
61640;SDS011;62201;49.966;8.342;2023-06-19T14:24:30;4.15;;;2.47;;
61640;SDS011;62201;49.966;8.342;2023-06-19T14:26:56;2.30;;;1.98;;
61640;SDS011;62201;49.966;8.342;2023-06-19T14:29:21;3.47;;;2.10;;
61640;SDS011;62201;49.966;8.342;2023-06-19T14:31:46;2.38;;;2.15;;
61640;SDS011;62201;49.966;8.342;2023-06-19T14:34:12;3.58;;;2.15;;
61640;SDS011;62201;49.966;8.342;2023-06-19T14:36:38;4.70;;;2.20;;
61640;SDS011;62201;49.966;8.342;2023-06-19T14:39:03;5.03;;;2.28;;
61640;SDS011;62201;49.966;8.342;2023-06-19T14:41:29;4.95;;;2.03;;
61640;SDS011;62201;49.966;8.342;2023-06-19T14:43:54;3.17;;;2.17;;
61640;SDS011;62201;49.966;8.342;2023-06-19T14:46:19;7.78;;;2.20;;
61640;SDS011;62201;49.966;8.342;2023-06-19T14:48:45;4.22;;;2.10;;